Terminal Aerodrome Forecast
Issued by NWS Memphis, TN

Home | Current Version | Previous Version | Text Only | Print | Product List | Glossary On
Versions: 1 2 3 4 5 6 7 8 9 10 11 12 13 14 15 16 17 18 19
000
FTUS44 KMEG 240200 AAA
TAFJBR
TAF AMD
KJBR 240200Z 2402/2424 32009KT P6SM VCSH SCT035 BKN060 BKN100
     FM240300 31006KT P6SM VCSH SCT035 BKN080
     FM240900 31009KT P6SM SCT030 BKN050
     FM241700 29010KT P6SM VCSH BKN050=

USA.gov is the U.S. government's official web portal to all federal, state and local government web resources and services.